Victoriaville, Canada
Current Conditions -  °F | °C
As of 12:00 PM on Wednesday 26 Nov 2014 (Local Time) from CYRQ Reporting Station
Broken Clouds Broken Clouds  
Wind Chill: 26°   Ceiling: 15000
Heat Index: 32°   Visibility: 9mi
Dew Point: 19°   Wind: 6mph
Humidity: 60%   Direction: 30°NNE
Pressure: 30.2"   Gusts: NA
Location:  46.05°N, 71.97°W
Report Text: CYRQ 261700Z AUTO 03005KT 9SM BKN150 BKN170 00/M07 A3020 RMK PRESFR SLP230
Loading
Personal Weather Stations






























Interactive Weather Map New forecast layout! Learn more

10-Day Weather Forecast

Advertisements
Track Severe Weather on mobile